Portada
METAR-TAF:

METAR-TAF

Aeropuertos :

Oita, Japón

latitud: 33-29N, longitud: 131-44E, altitud: 5 m

Observación

El informe se hizo hace 48 minutos, a las 05:00 UTC
Viento 14 kt del norte-noreste
Temperatura 12°C
Humedad 62%
Presión 1029 hPa
Visibilidad 10 km o más
Escasas nubes a una altura de 3000 ft

METAR: RJFO 200500Z 03014KT 9999 FEW030 12/05 Q1029

Hora: 14:48 (05:48 UTC)

Pronóstico

El informe se hizo hace 36 minutos, a las 05:12 UTC
Pronóstico válido del 20 a las 06 UTC al 21 a las 12 UTC
Viento 13 kt del norte-noreste
Visibilidad 10 km o más
Escasas nubes a una altura de 3000 ft
Evolucionando progresivamente
del 21 a las 00 UTC al 21 a las 03 UTC
Viento 7 kt del este
Evolucionando progresivamente
del 21 a las 03 UTC al 21 a las 06 UTC
Viento 12 kt del sur-sureste

TAF: RJFO 200512Z 2006/2112 02013KT 9999 FEW030 BECMG 2100/2103 08007KT BECMG 2103/2106 16012KT

Observaciones y pronósticos meteorológicos de más de 4000 aeropuertos (mensajes METAR y TAF).

Los puntos amarillos y rojos representan las estaciones disponibles.

Ponga el ratón en el punto deseado para ver el nombre de la estación.

Haga clic para ver las observaciones y los pronósticos meteorológicos.

Para cambiar el mapa : haga clic en los botones verdes con una cruz de color negro para hacer un zoom, en el botón verde con un guión para alejar o en las flechas verdes para mapas adyacentes.


METAR-TAF: